createdAt,value
2023-02-22T00:00:20.133Z,63.15
2023-02-22T00:02:52.857Z,63.40
2023-02-22T00:05:25.791Z,63.04
2023-02-22T00:08:01.838Z,62.54
2023-02-22T00:10:32.551Z,62.91
2023-02-22T00:13:02.841Z,62.66
2023-02-22T00:15:34.634Z,62.08
2023-02-22T00:18:08.013Z,61.67
2023-02-22T00:20:42.181Z,62.07
2023-02-22T00:23:20.294Z,62.27
2023-02-22T00:25:52.986Z,61.64
2023-02-22T00:28:25.130Z,60.89
2023-02-22T00:30:56.482Z,60.77
2023-02-22T00:33:27.435Z,60.43
2023-02-22T00:35:58.714Z,60.17
2023-02-22T00:38:30.466Z,59.55
2023-02-22T00:41:01.121Z,59.47
2023-02-22T00:43:31.662Z,59.43
2023-02-22T00:46:02.398Z,58.82
2023-02-22T00:48:33.037Z,58.85
2023-02-22T00:51:03.342Z,58.57
2023-02-22T00:53:33.963Z,58.63
2023-02-22T00:56:04.607Z,58.33
2023-02-22T00:58:35.770Z,57.38
2023-02-22T01:01:06.595Z,57.70
2023-02-22T01:03:40.505Z,57.65
2023-02-22T01:06:11.479Z,57.66
2023-02-22T01:08:46.030Z,57.88
2023-02-22T01:11:18.939Z,57.61
2023-02-22T01:13:49.815Z,57.05
2023-02-22T01:16:21.159Z,57.33
2023-02-22T01:18:52.565Z,57.48
2023-02-22T01:21:23.320Z,56.63
2023-02-22T01:23:53.667Z,56.96
2023-02-22T01:26:24.388Z,55.92
2023-02-22T01:28:55.654Z,55.26
2023-02-22T01:31:29.588Z,55.59
2023-02-22T01:34:00.500Z,55.21
2023-02-22T01:36:30.810Z,55.63
2023-02-22T01:39:01.660Z,55.36
2023-02-22T01:41:32.874Z,55.67
2023-02-22T01:44:34.262Z,55.51
2023-02-22T01:47:06.567Z,55.08
2023-02-22T01:49:45.339Z,55.22
2023-02-22T01:52:21.131Z,54.49
2023-02-22T01:55:01.773Z,54.17
2023-02-22T01:57:38.293Z,54.75
2023-02-22T02:00:12.669Z,55.26
2023-02-22T02:02:52.320Z,56.80
2023-02-22T02:05:25.780Z,57.38
2023-02-22T02:07:56.136Z,57.35
2023-02-22T02:10:27.540Z,56.83
2023-02-22T02:12:59.239Z,56.79
2023-02-22T02:15:32.698Z,56.90
2023-02-22T02:18:09.123Z,57.10
2023-02-22T02:20:56.266Z,57.59
2023-02-22T02:23:27.029Z,57.46
2023-02-22T02:26:09.879Z,57.00
2023-02-22T02:29:19.918Z,56.52
2023-02-22T02:32:12.165Z,56.40
2023-02-22T02:35:15.346Z,56.13
2023-02-22T02:38:01.399Z,56.35
2023-02-22T02:40:44.852Z,55.39
2023-02-22T02:43:59.201Z,55.77
2023-02-22T02:46:57.053Z,55.55
2023-02-22T02:49:35.470Z,55.25
2023-02-22T02:52:06.767Z,55.52
2023-02-22T02:54:38.982Z,55.25
2023-02-22T02:57:10.679Z,55.51
2023-02-22T02:59:41.627Z,55.03
2023-02-22T03:02:40.400Z,54.68
2023-02-22T03:05:36.682Z,54.44
2023-02-22T03:08:39.940Z,54.49
2023-02-22T03:11:21.401Z,54.75
2023-02-22T03:14:23.993Z,54.88
2023-02-22T03:17:06.424Z,54.75
2023-02-22T03:19:59.843Z,54.75
2023-02-22T03:22:45.011Z,54.61
2023-02-22T03:25:22.084Z,54.39
2023-02-22T03:28:03.310Z,53.86
2023-02-22T03:30:38.318Z,53.93
2023-02-22T03:33:21.326Z,54.82
2023-02-22T03:35:58.571Z,53.76
2023-02-22T03:38:32.941Z,54.19
2023-02-22T03:41:04.777Z,53.34
2023-02-22T03:43:42.560Z,53.42
2023-02-22T03:46:17.807Z,53.17
2023-02-22T03:49:09.924Z,53.07
2023-02-22T03:51:43.046Z,52.79
2023-02-22T03:54:17.308Z,52.99
2023-02-22T03:56:58.826Z,53.67
2023-02-22T03:59:30.405Z,53.64
2023-02-22T04:02:01.078Z,52.44
2023-02-22T04:04:35.223Z,52.70
2023-02-22T04:07:07.097Z,52.36
2023-02-22T04:09:38.989Z,52.56
2023-02-22T04:12:10.378Z,52.52
2023-02-22T04:14:55.866Z,52.68
2023-02-22T04:17:27.062Z,52.27
2023-02-22T04:19:58.960Z,52.37
2023-02-22T04:22:33.182Z,52.41
2023-02-22T04:25:03.560Z,52.09
2023-02-22T04:27:35.363Z,52.34
2023-02-22T04:30:06.878Z,52.68
2023-02-22T04:32:39.973Z,52.74
2023-02-22T04:35:11.032Z,53.21
2023-02-22T04:37:42.036Z,53.65
2023-02-22T04:40:13.225Z,54.34
2023-02-22T04:42:44.222Z,55.06
2023-02-22T04:45:15.736Z,55.11
2023-02-22T04:47:48.328Z,55.40
2023-02-22T04:50:20.696Z,54.44
2023-02-22T04:52:51.262Z,54.97
2023-02-22T04:55:23.428Z,55.33
2023-02-22T04:57:54.863Z,55.44
2023-02-22T05:00:34.197Z,54.89
2023-02-22T05:03:06.747Z,55.09
2023-02-22T05:05:37.429Z,54.82
2023-02-22T05:08:26.644Z,54.62
2023-02-22T05:10:57.379Z,54.44
2023-02-22T05:13:28.364Z,53.99
2023-02-22T05:15:59.232Z,54.41
2023-02-22T05:18:30.813Z,53.71
2023-02-22T05:21:01.397Z,53.87
2023-02-22T05:23:31.572Z,53.56
2023-02-22T05:26:03.464Z,52.98
2023-02-22T05:28:35.342Z,52.59
2023-02-22T05:31:08.344Z,52.08
2023-02-22T05:33:40.559Z,52.02
2023-02-22T05:36:11.559Z,51.44
2023-02-22T05:38:44.349Z,51.07
2023-02-22T05:41:18.114Z,50.99
2023-02-22T05:43:48.778Z,51.34
2023-02-22T05:46:22.279Z,50.84
2023-02-22T05:48:52.655Z,50.34
2023-02-22T05:51:23.726Z,50.16
2023-02-22T05:53:54.316Z,50.15
2023-02-22T05:56:30.165Z,49.09
2023-02-22T05:59:01.027Z,49.46
2023-02-22T06:01:32.451Z,48.86
2023-02-22T06:04:03.148Z,48.73
2023-02-22T06:06:33.784Z,48.86
2023-02-22T06:09:04.706Z,48.80
2023-02-22T06:11:36.452Z,48.61
2023-02-22T06:14:07.026Z,48.61
2023-02-22T06:16:40.557Z,48.37
2023-02-22T06:19:11.268Z,48.36
2023-02-22T06:21:43.055Z,48.04
2023-02-22T06:24:14.175Z,48.17
2023-02-22T06:26:44.535Z,47.39
2023-02-22T06:29:14.903Z,47.68
2023-02-22T06:31:46.047Z,46.66
2023-02-22T06:34:16.632Z,46.97
2023-02-22T06:36:48.904Z,46.86
2023-02-22T06:39:38.220Z,46.48
2023-02-22T06:42:11.513Z,46.80
2023-02-22T06:44:42.326Z,46.33
2023-02-22T06:47:13.598Z,46.55
2023-02-22T06:49:44.231Z,46.95
2023-02-22T06:52:14.340Z,46.91
2023-02-22T06:54:44.862Z,46.97
2023-02-22T06:57:15.565Z,46.76
2023-02-22T06:59:46.622Z,47.37
2023-02-22T07:02:17.291Z,47.70
2023-02-22T07:04:47.588Z,47.59
2023-02-22T07:07:26.145Z,47.31
2023-02-22T07:09:56.664Z,47.12
2023-02-22T07:12:26.905Z,47.15
2023-02-22T07:14:58.130Z,47.37
2023-02-22T07:17:29.040Z,47.21
2023-02-22T07:19:59.345Z,47.36
2023-02-22T07:22:32.741Z,47.25
2023-02-22T07:25:03.420Z,47.09
2023-02-22T07:27:34.001Z,46.99
2023-02-22T07:30:05.161Z,46.84
2023-02-22T07:32:35.803Z,46.78
2023-02-22T07:35:06.230Z,46.59
2023-02-22T07:37:36.458Z,46.49
2023-02-22T07:40:07.211Z,46.47
2023-02-22T07:43:01.750Z,46.64
2023-02-22T07:45:36.582Z,46.45
2023-02-22T07:48:08.372Z,46.07
2023-02-22T07:50:39.874Z,46.48
2023-02-22T07:53:17.649Z,46.33
2023-02-22T07:55:51.801Z,46.33
2023-02-22T07:58:26.892Z,46.54
2023-02-22T08:00:58.032Z,46.16
2023-02-22T08:03:28.841Z,46.56
2023-02-22T08:06:01.727Z,46.52
2023-02-22T08:08:32.664Z,46.80
2023-02-22T08:11:03.489Z,46.58
2023-02-22T08:13:36.918Z,46.72
2023-02-22T08:16:09.544Z,46.60
2023-02-22T08:18:41.978Z,46.63
2023-02-22T08:21:12.613Z,46.59
2023-02-22T08:23:45.453Z,46.49
2023-02-22T08:26:16.525Z,46.64
2023-02-22T08:28:49.818Z,46.00
2023-02-22T08:31:20.991Z,45.73
2023-02-22T08:33:54.777Z,45.99
2023-02-22T08:36:25.657Z,45.98
2023-02-22T08:38:56.445Z,46.17
2023-02-22T08:41:27.447Z,46.50
2023-02-22T08:44:02.253Z,46.61
2023-02-22T08:46:32.845Z,46.67
2023-02-22T08:49:04.226Z,46.30
2023-02-22T08:51:38.476Z,46.91
2023-02-22T08:54:13.437Z,46.68
2023-02-22T08:56:45.000Z,46.74
2023-02-22T08:59:16.598Z,47.03
2023-02-22T09:01:56.402Z,46.77
2023-02-22T09:04:26.790Z,46.64
2023-02-22T09:06:57.950Z,46.77
2023-02-22T09:09:28.563Z,47.26
2023-02-22T09:11:59.799Z,47.31
2023-02-22T09:14:31.001Z,47.21
2023-02-22T09:17:04.658Z,47.33
2023-02-22T09:19:36.949Z,47.15
2023-02-22T09:22:07.937Z,46.87
2023-02-22T09:24:40.302Z,46.76
2023-02-22T09:27:13.131Z,46.77
2023-02-22T09:29:43.588Z,47.32
2023-02-22T09:32:14.898Z,47.14
2023-02-22T09:34:46.838Z,47.28
2023-02-22T09:37:19.566Z,47.13
2023-02-22T09:39:50.042Z,47.49
2023-02-22T09:42:30.359Z,47.55
2023-02-22T09:45:20.076Z,47.62
2023-02-22T09:47:56.920Z,47.74
2023-02-22T09:50:36.736Z,47.54
2023-02-22T09:53:13.327Z,47.78
2023-02-22T09:55:52.197Z,48.22
2023-02-22T09:58:46.004Z,48.76
2023-02-22T10:01:33.545Z,48.43
2023-02-22T10:04:19.637Z,48.74
2023-02-22T10:07:27.033Z,48.89
2023-02-22T10:09:58.058Z,48.64
2023-02-22T10:13:15.071Z,49.19
2023-02-22T10:16:20.330Z,49.49
2023-02-22T10:19:18.867Z,49.94
2023-02-22T10:22:08.647Z,50.14
2023-02-22T10:24:49.942Z,50.29
2023-02-22T10:27:43.673Z,50.08
2023-02-22T10:30:31.432Z,50.21
2023-02-22T10:33:22.500Z,50.38
2023-02-22T10:35:54.871Z,49.96
2023-02-22T10:38:28.092Z,50.59
2023-02-22T10:41:00.810Z,50.88
2023-02-22T10:43:32.720Z,50.65
2023-02-22T10:46:06.619Z,51.14
2023-02-22T10:48:40.149Z,51.56
2023-02-22T10:51:11.363Z,51.54
2023-02-22T10:53:42.431Z,51.58
2023-02-22T10:56:25.362Z,51.40
2023-02-22T10:59:03.378Z,50.71
2023-02-22T11:01:34.329Z,50.32
2023-02-22T11:04:25.085Z,50.65
2023-02-22T11:07:32.394Z,51.49
2023-02-22T11:10:10.359Z,50.71
2023-02-22T11:12:44.649Z,50.78
2023-02-22T11:15:23.146Z,51.00
2023-02-22T11:17:56.814Z,51.19
2023-02-22T11:20:35.808Z,50.85
2023-02-22T11:23:09.103Z,50.46
2023-02-22T11:25:43.211Z,50.33
2023-02-22T11:28:31.832Z,50.04
2023-02-22T11:31:33.974Z,50.09
2023-02-22T11:34:06.184Z,50.09
2023-02-22T11:36:42.169Z,50.05
2023-02-22T11:39:26.900Z,50.42
2023-02-22T11:42:05.360Z,50.51
2023-02-22T11:44:37.383Z,50.59
2023-02-22T11:47:13.283Z,50.97
2023-02-22T11:49:46.718Z,51.58
2023-02-22T11:52:32.323Z,51.58
2023-02-22T11:55:10.817Z,51.90
2023-02-22T11:58:06.724Z,51.87
2023-02-22T12:00:49.438Z,51.73
2023-02-22T12:03:36.372Z,52.17
2023-02-22T12:06:27.958Z,53.01
2023-02-22T12:09:10.782Z,53.49
2023-02-22T12:11:53.303Z,53.60
2023-02-22T12:14:35.164Z,53.13
2023-02-22T12:17:59.382Z,53.44
2023-02-22T12:20:40.698Z,54.02
2023-02-22T12:23:14.384Z,54.09
2023-02-22T12:26:05.198Z,54.85
2023-02-22T12:28:44.399Z,54.44
2023-02-22T12:31:24.246Z,54.66
2023-02-22T12:34:22.600Z,55.21
2023-02-22T12:37:11.674Z,55.63
2023-02-22T12:39:52.815Z,55.34
2023-02-22T12:42:36.808Z,56.20
2023-02-22T12:45:17.803Z,56.05
2023-02-22T12:47:57.423Z,56.35
2023-02-22T12:50:35.311Z,55.92
2023-02-22T12:53:20.740Z,56.40
2023-02-22T12:56:00.523Z,56.07
2023-02-22T12:58:55.027Z,56.07
2023-02-22T13:01:31.000Z,55.99
2023-02-22T13:04:19.412Z,56.40
2023-02-22T13:07:07.066Z,56.25
2023-02-22T13:10:07.556Z,56.24
2023-02-22T13:12:59.275Z,55.96
2023-02-22T13:15:44.862Z,55.45
2023-02-22T13:18:40.296Z,55.24
2023-02-22T13:21:31.636Z,55.13
2023-02-22T13:24:14.574Z,55.01
2023-02-22T13:26:52.504Z,54.95
2023-02-22T13:29:32.305Z,54.83
2023-02-22T13:32:12.626Z,54.83
2023-02-22T13:35:02.144Z,54.86
2023-02-22T13:38:06.729Z,54.66
2023-02-22T13:40:43.473Z,54.63
2023-02-22T13:43:31.685Z,54.95
2023-02-22T13:46:46.051Z,55.02
2023-02-22T13:49:52.906Z,55.23
2023-02-22T13:52:29.776Z,55.81
2023-02-22T13:55:12.138Z,55.98
2023-02-22T13:57:50.615Z,56.42
2023-02-22T14:00:41.767Z,56.79
2023-02-22T14:03:16.207Z,56.65
2023-02-22T14:05:57.862Z,56.76
2023-02-22T14:08:34.917Z,56.84
2023-02-22T14:11:28.265Z,56.91
2023-02-22T14:14:04.399Z,56.76
2023-02-22T14:16:36.850Z,56.85
2023-02-22T14:19:24.524Z,57.06
2023-02-22T14:22:03.030Z,57.69
2023-02-22T14:24:48.021Z,57.89
2023-02-22T14:27:19.184Z,57.66
2023-02-22T14:29:58.111Z,57.63
2023-02-22T14:32:34.274Z,58.08
2023-02-22T14:35:28.699Z,57.98
2023-02-22T14:38:03.099Z,57.46
2023-02-22T14:40:46.408Z,57.72
2023-02-22T14:43:23.325Z,57.56
2023-02-22T14:45:56.456Z,58.01
2023-02-22T14:48:40.279Z,58.06
2023-02-22T14:51:30.096Z,57.63
2023-02-22T14:54:14.264Z,57.67
2023-02-22T14:57:01.867Z,57.42
2023-02-22T14:59:34.184Z,57.21
2023-02-22T15:02:13.590Z,57.68
2023-02-22T15:04:56.318Z,57.68
2023-02-22T15:07:33.218Z,57.32
2023-02-22T15:10:09.225Z,57.07
2023-02-22T15:12:40.135Z,57.27
2023-02-22T15:15:28.893Z,57.35
2023-02-22T15:18:00.572Z,57.50
2023-02-22T15:20:31.337Z,57.28
2023-02-22T15:23:03.442Z,57.44
2023-02-22T15:25:35.634Z,57.06
2023-02-22T15:28:10.370Z,57.26
2023-02-22T15:30:41.010Z,57.12
2023-02-22T15:33:25.580Z,57.89
2023-02-22T15:36:00.460Z,57.61
2023-02-22T15:38:31.988Z,57.44
2023-02-22T15:41:04.735Z,57.49
2023-02-22T15:43:35.595Z,57.70
2023-02-22T15:46:07.641Z,57.71
2023-02-22T15:48:42.142Z,57.72
2023-02-22T15:51:14.971Z,58.05
2023-02-22T15:53:51.161Z,58.53
2023-02-22T15:56:32.493Z,59.01
2023-02-22T15:59:07.729Z,58.89
2023-02-22T16:01:43.856Z,60.01
2023-02-22T16:04:28.680Z,60.16
2023-02-22T16:07:17.874Z,59.62
2023-02-22T16:09:52.221Z,59.80
2023-02-22T16:12:25.306Z,59.79
2023-02-22T16:14:56.250Z,59.63
2023-02-22T16:17:36.354Z,60.06
2023-02-22T16:20:18.498Z,60.11
2023-02-22T16:22:53.008Z,59.73
2023-02-22T16:25:30.719Z,59.63
2023-02-22T16:28:07.096Z,59.62
2023-02-22T16:30:40.471Z,59.80
2023-02-22T16:33:17.426Z,59.60
2023-02-22T16:35:52.858Z,59.97
2023-02-22T16:38:23.195Z,59.56
2023-02-22T16:40:56.451Z,59.65
2023-02-22T16:43:30.799Z,60.36
2023-02-22T16:46:03.186Z,59.36
2023-02-22T16:48:38.930Z,59.62
2023-02-22T16:51:28.215Z,59.51
2023-02-22T16:53:58.811Z,59.58
2023-02-22T16:56:31.401Z,59.19
2023-02-22T16:59:07.039Z,59.44
2023-02-22T17:01:37.578Z,59.47
2023-02-22T17:04:21.875Z,59.50
2023-02-22T17:06:52.931Z,59.43
2023-02-22T17:09:23.228Z,59.85
2023-02-22T17:11:54.901Z,59.62
2023-02-22T17:14:27.939Z,59.64
2023-02-22T17:17:01.509Z,59.68
2023-02-22T17:19:42.266Z,59.49
2023-02-22T17:22:21.240Z,59.59
2023-02-22T17:24:51.855Z,59.21
2023-02-22T17:27:22.470Z,59.37
2023-02-22T17:29:52.696Z,59.66
2023-02-22T17:32:23.293Z,59.45
2023-02-22T17:34:53.908Z,59.49
2023-02-22T17:37:26.483Z,59.57
2023-02-22T17:39:57.068Z,59.70
2023-02-22T17:42:27.583Z,60.18
2023-02-22T17:44:58.178Z,59.91
2023-02-22T17:47:28.912Z,60.42
2023-02-22T17:49:59.525Z,60.33
2023-02-22T17:52:31.146Z,60.30
2023-02-22T17:55:02.466Z,60.83
2023-02-22T17:57:33.084Z,60.42
2023-02-22T18:00:13.360Z,60.83
2023-02-22T18:02:45.028Z,60.95
2023-02-22T18:05:18.495Z,60.84
2023-02-22T18:07:49.295Z,60.65
2023-02-22T18:10:21.742Z,60.89
2023-02-22T18:12:54.328Z,61.00
2023-02-22T18:15:29.090Z,61.10
2023-02-22T18:17:59.645Z,61.60
2023-02-22T18:20:39.044Z,61.38
2023-02-22T18:23:20.481Z,61.47
2023-02-22T18:26:08.951Z,61.88
2023-02-22T18:28:40.816Z,61.87
2023-02-22T18:31:15.467Z,62.31
2023-02-22T18:33:51.794Z,62.52
2023-02-22T18:36:23.799Z,62.01
2023-02-22T18:38:55.265Z,62.34
2023-02-22T18:41:26.117Z,62.24
2023-02-22T18:43:59.927Z,62.24
2023-02-22T18:46:31.093Z,62.63
2023-02-22T18:49:01.305Z,62.56
2023-02-22T18:51:31.889Z,62.50
2023-02-22T18:54:02.064Z,62.32
2023-02-22T18:56:34.778Z,62.51
2023-02-22T18:59:05.898Z,62.54
2023-02-22T19:01:39.496Z,62.81
2023-02-22T19:04:11.064Z,62.52
2023-02-22T19:06:41.860Z,62.49
2023-02-22T19:09:12.502Z,62.76
2023-02-22T19:11:46.001Z,62.70
2023-02-22T19:14:18.304Z,62.98
2023-02-22T19:16:51.345Z,62.75
2023-02-22T19:19:23.574Z,62.79
2023-02-22T19:21:57.252Z,62.84
2023-02-22T19:24:28.053Z,63.01
2023-02-22T19:26:58.448Z,63.02
2023-02-22T19:29:32.066Z,63.49
2023-02-22T19:32:06.400Z,63.22
2023-02-22T19:34:37.991Z,63.30
2023-02-22T19:37:08.603Z,63.60
2023-02-22T19:39:39.602Z,63.64
2023-02-22T19:42:11.123Z,63.63
2023-02-22T19:44:44.999Z,64.02
2023-02-22T19:47:17.567Z,64.31
2023-02-22T19:49:51.046Z,64.16
2023-02-22T19:52:21.328Z,64.22
2023-02-22T19:54:54.724Z,63.96
2023-02-22T19:57:25.712Z,64.29
2023-02-22T19:59:56.947Z,64.20
2023-02-22T20:02:28.493Z,64.20
2023-02-22T20:05:00.188Z,64.86
2023-02-22T20:07:34.370Z,64.82
2023-02-22T20:10:09.163Z,65.01
2023-02-22T20:12:39.446Z,65.06
2023-02-22T20:15:13.988Z,65.04
2023-02-22T20:17:46.178Z,64.89
2023-02-22T20:20:16.829Z,65.32
2023-02-22T20:22:48.840Z,65.45
2023-02-22T20:25:19.524Z,65.46
2023-02-22T20:27:50.916Z,65.47
2023-02-22T20:30:21.259Z,65.58
2023-02-22T20:32:52.086Z,65.32
2023-02-22T20:35:23.151Z,65.32
2023-02-22T20:37:53.712Z,65.29
2023-02-22T20:40:24.678Z,65.25
2023-02-22T20:43:05.038Z,65.97
2023-02-22T20:45:41.567Z,65.92
2023-02-22T20:48:13.169Z,65.54
2023-02-22T20:50:43.529Z,65.95
2023-02-22T20:53:13.791Z,65.74
2023-02-22T20:55:56.566Z,66.10
2023-02-22T20:58:27.200Z,66.33
2023-02-22T21:01:00.451Z,66.16
2023-02-22T21:03:31.502Z,66.14
2023-02-22T21:06:02.180Z,66.44
2023-02-22T21:08:35.028Z,66.61
2023-02-22T21:11:15.731Z,66.46
2023-02-22T21:13:47.273Z,66.78
2023-02-22T21:16:26.935Z,67.10
2023-02-22T21:19:00.134Z,66.70
2023-02-22T21:21:31.929Z,66.81
2023-02-22T21:24:02.905Z,66.82
2023-02-22T21:26:35.177Z,67.37
2023-02-22T21:29:07.522Z,67.16
2023-02-22T21:31:38.715Z,67.12
2023-02-22T21:34:13.053Z,67.47
2023-02-22T21:36:43.606Z,67.40
2023-02-22T21:39:20.302Z,67.47
2023-02-22T21:41:52.779Z,67.82
2023-02-22T21:44:23.356Z,67.64
2023-02-22T21:46:54.158Z,67.95
2023-02-22T21:49:24.564Z,67.80
2023-02-22T21:51:55.188Z,67.97
2023-02-22T21:54:25.918Z,68.06
2023-02-22T21:56:56.381Z,68.16
2023-02-22T21:59:26.964Z,68.14
2023-02-22T22:01:57.782Z,68.11
2023-02-22T22:04:32.719Z,68.28
2023-02-22T22:07:05.274Z,68.60
2023-02-22T22:09:38.633Z,68.00
2023-02-22T22:12:11.041Z,68.09
2023-02-22T22:14:41.405Z,68.05
2023-02-22T22:17:13.081Z,68.29
2023-02-22T22:19:45.473Z,68.34
2023-02-22T22:22:19.371Z,68.53
2023-02-22T22:24:52.579Z,68.29
2023-02-22T22:27:22.743Z,68.63
2023-02-22T22:29:58.078Z,68.55
2023-02-22T22:32:33.378Z,68.36
2023-02-22T22:35:07.728Z,68.37
2023-02-22T22:37:42.126Z,68.68
2023-02-22T22:40:16.709Z,68.95
2023-02-22T22:42:48.284Z,68.84
2023-02-22T22:45:19.050Z,68.85
2023-02-22T22:47:49.365Z,68.84
2023-02-22T22:50:20.758Z,69.00
2023-02-22T22:52:51.664Z,68.92
2023-02-22T22:55:31.327Z,69.27
2023-02-22T22:58:01.552Z,69.06
2023-02-22T23:00:34.856Z,69.24
2023-02-22T23:03:07.692Z,68.93
2023-02-22T23:05:43.200Z,68.97
2023-02-22T23:08:13.834Z,69.60
2023-02-22T23:10:44.538Z,69.62
2023-02-22T23:13:16.596Z,69.07
2023-02-22T23:15:50.222Z,69.72
2023-02-22T23:18:21.492Z,69.07
2023-02-22T23:20:56.101Z,69.16
2023-02-22T23:23:28.702Z,69.05
2023-02-22T23:26:12.802Z,68.95
2023-02-22T23:28:43.958Z,68.94
2023-02-22T23:31:17.174Z,68.89
2023-02-22T23:33:51.259Z,68.98
2023-02-22T23:36:21.745Z,68.91
2023-02-22T23:38:52.903Z,68.56
2023-02-22T23:41:26.079Z,68.71
2023-02-22T23:43:56.725Z,69.39
2023-02-22T23:46:27.949Z,68.47
2023-02-22T23:49:02.807Z,68.81
2023-02-22T23:51:40.251Z,68.54
2023-02-22T23:54:14.000Z,68.94
2023-02-22T23:56:48.182Z,68.93
2023-02-22T23:59:19.153Z,68.63
